sensor_id;sensor_type;location;lat;lon;timestamp;P1;P2;P0
77794;PMS5003;66985;45.778;3.090;2023-03-01T00:00:50;26;24;
77794;PMS5003;66985;45.778;3.090;2023-03-01T00:03:15;31;28;
77794;PMS5003;66985;45.778;3.090;2023-03-01T00:05:43;26;25;
77794;PMS5003;66985;45.778;3.090;2023-03-01T00:08:07;33;27;
77794;PMS5003;66985;45.778;3.090;2023-03-01T00:10:32;24;20;
77794;PMS5003;66985;45.778;3.090;2023-03-01T00:12:57;29;26;
77794;PMS5003;66985;45.778;3.090;2023-03-01T00:15:24;24;22;
77794;PMS5003;66985;45.778;3.090;2023-03-01T00:17:48;29;25;
77794;PMS5003;66985;45.778;3.090;2023-03-01T00:20:13;26;24;
77794;PMS5003;66985;45.778;3.090;2023-03-01T00:22:39;24;23;
77794;PMS5003;66985;45.778;3.090;2023-03-01T00:25:05;21;21;
77794;PMS5003;66985;45.778;3.090;2023-03-01T00:27:30;22;21;
77794;PMS5003;66985;45.778;3.090;2023-03-01T00:29:56;26;23;
77794;PMS5003;66985;45.778;3.090;2023-03-01T00:32:21;25;22;
77794;PMS5003;66985;45.778;3.090;2023-03-01T00:34:48;25;24;
77794;PMS5003;66985;45.778;3.090;2023-03-01T00:37:12;24;21;
77794;PMS5003;66985;45.778;3.090;2023-03-01T00:39:37;19;19;
77794;PMS5003;66985;45.778;3.090;2023-03-01T00:42:03;23;21;
77794;PMS5003;66985;45.778;3.090;2023-03-01T00:44:29;28;24;
77794;PMS5003;66985;45.778;3.090;2023-03-01T00:46:54;25;20;
77794;PMS5003;66985;45.778;3.090;2023-03-01T00:49:20;19;18;
77794;PMS5003;66985;45.778;3.090;2023-03-01T00:51:45;22;19;
77794;PMS5003;66985;45.778;3.090;2023-03-01T00:54:11;21;19;
77794;PMS5003;66985;45.778;3.090;2023-03-01T00:56:35;19;17;
77794;PMS5003;66985;45.778;3.090;2023-03-01T00:59:01;23;20;
77794;PMS5003;66985;45.778;3.090;2023-03-01T01:01:27;20;20;
77794;PMS5003;66985;45.778;3.090;2023-03-01T01:03:53;20;20;
77794;PMS5003;66985;45.778;3.090;2023-03-01T01:06:18;19;17;
77794;PMS5003;66985;45.778;3.090;2023-03-01T01:08:44;22;21;
77794;PMS5003;66985;45.778;3.090;2023-03-01T01:11:09;18;18;
77794;PMS5003;66985;45.778;3.090;2023-03-01T01:13:33;18;18;
77794;PMS5003;66985;45.778;3.090;2023-03-01T01:16:00;19;18;
77794;PMS5003;66985;45.778;3.090;2023-03-01T01:18:24;18;16;
77794;PMS5003;66985;45.778;3.090;2023-03-01T01:20:49;15;15;
77794;PMS5003;66985;45.778;3.090;2023-03-01T01:23:15;16;15;
77794;PMS5003;66985;45.778;3.090;2023-03-01T01:25:40;18;16;
77794;PMS5003;66985;45.778;3.090;2023-03-01T01:28:05;18;17;
77794;PMS5003;66985;45.778;3.090;2023-03-01T01:30:31;21;20;
77794;PMS5003;66985;45.778;3.090;2023-03-01T01:32:55;16;16;
77794;PMS5003;66985;45.778;3.090;2023-03-01T01:35:21;19;17;
77794;PMS5003;66985;45.778;3.090;2023-03-01T01:37:45;22;20;
77794;PMS5003;66985;45.778;3.090;2023-03-01T01:40:12;22;19;
77794;PMS5003;66985;45.778;3.090;2023-03-01T01:42:37;16;16;
77794;PMS5003;66985;45.778;3.090;2023-03-01T01:45:34;18;14;
77794;PMS5003;66985;45.778;3.090;2023-03-01T01:47:28;15;13;
77794;PMS5003;66985;45.778;3.090;2023-03-01T01:49:53;15;15;
77794;PMS5003;66985;45.778;3.090;2023-03-01T01:52:19;15;13;
77794;PMS5003;66985;45.778;3.090;2023-03-01T01:54:44;18;16;
77794;PMS5003;66985;45.778;3.090;2023-03-01T01:57:12;18;16;
77794;PMS5003;66985;45.778;3.090;2023-03-01T01:59:35;11;11;
77794;PMS5003;66985;45.778;3.090;2023-03-01T02:02:02;14;13;
77794;PMS5003;66985;45.778;3.090;2023-03-01T02:04:25;13;12;
77794;PMS5003;66985;45.778;3.090;2023-03-01T02:06:52;15;15;
77794;PMS5003;66985;45.778;3.090;2023-03-01T02:09:16;17;11;
77794;PMS5003;66985;45.778;3.090;2023-03-01T02:11:41;16;14;
77794;PMS5003;66985;45.778;3.090;2023-03-01T02:14:07;14;14;
77794;PMS5003;66985;45.778;3.090;2023-03-01T02:16:32;11;10;
77794;PMS5003;66985;45.778;3.090;2023-03-01T02:18:57;14;12;
77794;PMS5003;66985;45.778;3.090;2023-03-01T02:21:32;12;12;
77794;PMS5003;66985;45.778;3.090;2023-03-01T02:23:48;14;12;
77794;PMS5003;66985;45.778;3.090;2023-03-01T02:26:15;13;13;
77794;PMS5003;66985;45.778;3.090;2023-03-01T02:28:39;13;12;
77794;PMS5003;66985;45.778;3.090;2023-03-01T02:31:05;11;11;
77794;PMS5003;66985;45.778;3.090;2023-03-01T02:33:30;13;13;
77794;PMS5003;66985;45.778;3.090;2023-03-01T02:35:55;16;12;
77794;PMS5003;66985;45.778;3.090;2023-03-01T02:38:21;11;11;
77794;PMS5003;66985;45.778;3.090;2023-03-01T02:40:46;12;12;
77794;PMS5003;66985;45.778;3.090;2023-03-01T02:43:11;12;12;
77794;PMS5003;66985;45.778;3.090;2023-03-01T02:45:37;13;11;
77794;PMS5003;66985;45.778;3.090;2023-03-01T02:48:03;15;14;
77794;PMS5003;66985;45.778;3.090;2023-03-01T02:52:55;10;10;
77794;PMS5003;66985;45.778;3.090;2023-03-01T02:55:20;13;13;
77794;PMS5003;66985;45.778;3.090;2023-03-01T02:57:45;13;11;
77794;PMS5003;66985;45.778;3.090;2023-03-01T03:00:12;12;12;
77794;PMS5003;66985;45.778;3.090;2023-03-01T03:02:36;10;10;
77794;PMS5003;66985;45.778;3.090;2023-03-01T03:05:03;13;12;
77794;PMS5003;66985;45.778;3.090;2023-03-01T03:07:27;11;10;
77794;PMS5003;66985;45.778;3.090;2023-03-01T03:09:53;9;9;
77794;PMS5003;66985;45.778;3.090;2023-03-01T03:12:17;10;10;
77794;PMS5003;66985;45.778;3.090;2023-03-01T03:14:44;9;9;
77794;PMS5003;66985;45.778;3.090;2023-03-01T03:17:09;11;10;
77794;PMS5003;66985;45.778;3.090;2023-03-01T03:19:34;13;12;
77794;PMS5003;66985;45.778;3.090;2023-03-01T03:21:59;9;9;
77794;PMS5003;66985;45.778;3.090;2023-03-01T03:24:26;12;12;
77794;PMS5003;66985;45.778;3.090;2023-03-01T03:26:51;10;9;
77794;PMS5003;66985;45.778;3.090;2023-03-01T03:29:16;11;11;
77794;PMS5003;66985;45.778;3.090;2023-03-01T03:31:43;12;10;
77794;PMS5003;66985;45.778;3.090;2023-03-01T03:34:07;10;10;
77794;PMS5003;66985;45.778;3.090;2023-03-01T03:36:33;12;11;
77794;PMS5003;66985;45.778;3.090;2023-03-01T03:38:59;11;11;
77794;PMS5003;66985;45.778;3.090;2023-03-01T03:41:24;11;11;
77794;PMS5003;66985;45.778;3.090;2023-03-01T03:43:49;8;8;
77794;PMS5003;66985;45.778;3.090;2023-03-01T03:46:16;12;10;
77794;PMS5003;66985;45.778;3.090;2023-03-01T03:48:42;10;10;
77794;PMS5003;66985;45.778;3.090;2023-03-01T03:51:09;12;12;
77794;PMS5003;66985;45.778;3.090;2023-03-01T03:53:32;9;9;
77794;PMS5003;66985;45.778;3.090;2023-03-01T03:55:57;10;10;
77794;PMS5003;66985;45.778;3.090;2023-03-01T03:58:23;9;9;
77794;PMS5003;66985;45.778;3.090;2023-03-01T04:00:49;12;12;
77794;PMS5003;66985;45.778;3.090;2023-03-01T04:03:14;10;10;
77794;PMS5003;66985;45.778;3.090;2023-03-01T04:05:39;12;11;
77794;PMS5003;66985;45.778;3.090;2023-03-01T04:08:04;9;9;
77794;PMS5003;66985;45.778;3.090;2023-03-01T04:10:31;9;9;
77794;PMS5003;66985;45.778;3.090;2023-03-01T04:12:55;11;11;
77794;PMS5003;66985;45.778;3.090;2023-03-01T04:15:21;8;7;
77794;PMS5003;66985;45.778;3.090;2023-03-01T04:17:47;10;10;
77794;PMS5003;66985;45.778;3.090;2023-03-01T04:20:12;9;9;
77794;PMS5003;66985;45.778;3.090;2023-03-01T04:22:37;10;10;
77794;PMS5003;66985;45.778;3.090;2023-03-01T04:25:02;10;10;
77794;PMS5003;66985;45.778;3.090;2023-03-01T04:27:28;11;11;
77794;PMS5003;66985;45.778;3.090;2023-03-01T04:29:54;9;9;
77794;PMS5003;66985;45.778;3.090;2023-03-01T04:32:19;9;9;
77794;PMS5003;66985;45.778;3.090;2023-03-01T04:34:45;7;7;
77794;PMS5003;66985;45.778;3.090;2023-03-01T04:37:10;11;11;
77794;PMS5003;66985;45.778;3.090;2023-03-01T04:39:35;9;9;
77794;PMS5003;66985;45.778;3.090;2023-03-01T04:42:01;11;11;
77794;PMS5003;66985;45.778;3.090;2023-03-01T04:44:27;10;10;
77794;PMS5003;66985;45.778;3.090;2023-03-01T04:46:52;9;9;
77794;PMS5003;66985;45.778;3.090;2023-03-01T04:49:17;7;7;
77794;PMS5003;66985;45.778;3.090;2023-03-01T04:51:43;10;10;
77794;PMS5003;66985;45.778;3.090;2023-03-01T04:54:09;9;9;
77794;PMS5003;66985;45.778;3.090;2023-03-01T04:56:34;9;9;
77794;PMS5003;66985;45.778;3.090;2023-03-01T04:59:00;10;10;
77794;PMS5003;66985;45.778;3.090;2023-03-01T05:01:25;11;11;
77794;PMS5003;66985;45.778;3.090;2023-03-01T05:03:51;9;9;
77794;PMS5003;66985;45.778;3.090;2023-03-01T05:06:17;10;8;
77794;PMS5003;66985;45.778;3.090;2023-03-01T05:08:42;11;9;
77794;PMS5003;66985;45.778;3.090;2023-03-01T05:11:07;7;7;
77794;PMS5003;66985;45.778;3.090;2023-03-01T05:13:32;10;7;
77794;PMS5003;66985;45.778;3.090;2023-03-01T05:15:58;9;9;
77794;PMS5003;66985;45.778;3.090;2023-03-01T05:18:24;8;8;
77794;PMS5003;66985;45.778;3.090;2023-03-01T05:20:49;11;7;
77794;PMS5003;66985;45.778;3.090;2023-03-01T05:23:15;8;8;
77794;PMS5003;66985;45.778;3.090;2023-03-01T05:25:40;11;9;
77794;PMS5003;66985;45.778;3.090;2023-03-01T05:28:07;7;7;
77794;PMS5003;66985;45.778;3.090;2023-03-01T05:30:31;5;5;
77794;PMS5003;66985;45.778;3.090;2023-03-01T05:32:56;8;8;
77794;PMS5003;66985;45.778;3.090;2023-03-01T05:35:22;9;9;
77794;PMS5003;66985;45.778;3.090;2023-03-01T05:37:48;11;11;
77794;PMS5003;66985;45.778;3.090;2023-03-01T05:40:14;8;8;
77794;PMS5003;66985;45.778;3.090;2023-03-01T05:42:39;8;8;
77794;PMS5003;66985;45.778;3.090;2023-03-01T05:45:04;7;7;
77794;PMS5003;66985;45.778;3.090;2023-03-01T05:47:29;11;11;
77794;PMS5003;66985;45.778;3.090;2023-03-01T05:49:55;11;9;
77794;PMS5003;66985;45.778;3.090;2023-03-01T05:52:20;10;9;
77794;PMS5003;66985;45.778;3.090;2023-03-01T05:54:46;10;9;
77794;PMS5003;66985;45.778;3.090;2023-03-01T05:57:12;10;9;
77794;PMS5003;66985;45.778;3.090;2023-03-01T05:59:36;11;11;
77794;PMS5003;66985;45.778;3.090;2023-03-01T06:02:03;10;9;
77794;PMS5003;66985;45.778;3.090;2023-03-01T06:04:27;5;5;
77794;PMS5003;66985;45.778;3.090;2023-03-01T06:06:53;10;10;
77794;PMS5003;66985;45.778;3.090;2023-03-01T06:09:18;13;12;
77794;PMS5003;66985;45.778;3.090;2023-03-01T06:11:44;9;9;
77794;PMS5003;66985;45.778;3.090;2023-03-01T06:14:09;6;6;
77794;PMS5003;66985;45.778;3.090;2023-03-01T06:16:35;10;10;
77794;PMS5003;66985;45.778;3.090;2023-03-01T06:19:01;10;10;
77794;PMS5003;66985;45.778;3.090;2023-03-01T06:21:26;7;7;
77794;PMS5003;66985;45.778;3.090;2023-03-01T06:23:52;11;10;
77794;PMS5003;66985;45.778;3.090;2023-03-01T06:26:17;9;9;
77794;PMS5003;66985;45.778;3.090;2023-03-01T06:28:43;10;9;
77794;PMS5003;66985;45.778;3.090;2023-03-01T06:31:08;10;9;
77794;PMS5003;66985;45.778;3.090;2023-03-01T06:33:33;8;8;
77794;PMS5003;66985;45.778;3.090;2023-03-01T06:35:59;9;9;
77794;PMS5003;66985;45.778;3.090;2023-03-01T06:38:25;8;8;
77794;PMS5003;66985;45.778;3.090;2023-03-01T06:40:51;9;9;
77794;PMS5003;66985;45.778;3.090;2023-03-01T06:43:16;7;7;
77794;PMS5003;66985;45.778;3.090;2023-03-01T06:45:41;12;11;
77794;PMS5003;66985;45.778;3.090;2023-03-01T06:48:06;10;10;
77794;PMS5003;66985;45.778;3.090;2023-03-01T06:50:32;9;9;
77794;PMS5003;66985;45.778;3.090;2023-03-01T06:52:57;10;10;
77794;PMS5003;66985;45.778;3.090;2023-03-01T06:55:23;10;10;
77794;PMS5003;66985;45.778;3.090;2023-03-01T06:57:53;10;10;
77794;PMS5003;66985;45.778;3.090;2023-03-01T07:00:15;10;10;
77794;PMS5003;66985;45.778;3.090;2023-03-01T07:02:39;11;9;
77794;PMS5003;66985;45.778;3.090;2023-03-01T07:05:05;8;8;
77794;PMS5003;66985;45.778;3.090;2023-03-01T07:07:30;8;8;
77794;PMS5003;66985;45.778;3.090;2023-03-01T07:09:55;9;9;
77794;PMS5003;66985;45.778;3.090;2023-03-01T07:12:21;12;12;
77794;PMS5003;66985;45.778;3.090;2023-03-01T07:14:46;17;17;
77794;PMS5003;66985;45.778;3.090;2023-03-01T07:17:11;18;16;
77794;PMS5003;66985;45.778;3.090;2023-03-01T07:19:37;22;20;
77794;PMS5003;66985;45.778;3.090;2023-03-01T07:22:03;21;21;
77794;PMS5003;66985;45.778;3.090;2023-03-01T07:24:29;29;27;
77794;PMS5003;66985;45.778;3.090;2023-03-01T07:26:53;31;31;
77794;PMS5003;66985;45.778;3.090;2023-03-01T07:29:19;39;38;
77794;PMS5003;66985;45.778;3.090;2023-03-01T07:31:44;37;37;
77794;PMS5003;66985;45.778;3.090;2023-03-01T07:34:10;37;34;
77794;PMS5003;66985;45.778;3.090;2023-03-01T07:36:35;37;36;
77794;PMS5003;66985;45.778;3.090;2023-03-01T07:39:01;29;28;
77794;PMS5003;66985;45.778;3.090;2023-03-01T07:41:26;26;26;
77794;PMS5003;66985;45.778;3.090;2023-03-01T07:43:51;27;26;
77794;PMS5003;66985;45.778;3.090;2023-03-01T07:46:16;26;24;
77794;PMS5003;66985;45.778;3.090;2023-03-01T07:48:41;23;22;
77794;PMS5003;66985;45.778;3.090;2023-03-01T07:51:07;23;22;
77794;PMS5003;66985;45.778;3.090;2023-03-01T07:53:33;22;22;
77794;PMS5003;66985;45.778;3.090;2023-03-01T07:56:01;19;19;
77794;PMS5003;66985;45.778;3.090;2023-03-01T07:58:23;17;17;
77794;PMS5003;66985;45.778;3.090;2023-03-01T08:00:48;19;18;
77794;PMS5003;66985;45.778;3.090;2023-03-01T08:03:14;21;20;
77794;PMS5003;66985;45.778;3.090;2023-03-01T08:05:40;19;19;
77794;PMS5003;66985;45.778;3.090;2023-03-01T08:08:05;21;20;
77794;PMS5003;66985;45.778;3.090;2023-03-01T08:10:30;19;17;
77794;PMS5003;66985;45.778;3.090;2023-03-01T08:12:56;18;18;
77794;PMS5003;66985;45.778;3.090;2023-03-01T08:15:21;14;14;
77794;PMS5003;66985;45.778;3.090;2023-03-01T08:17:48;19;18;
77794;PMS5003;66985;45.778;3.090;2023-03-01T08:20:12;17;17;
77794;PMS5003;66985;45.778;3.090;2023-03-01T08:22:38;16;15;
77794;PMS5003;66985;45.778;3.090;2023-03-01T08:25:04;18;17;
77794;PMS5003;66985;45.778;3.090;2023-03-01T08:27:28;17;15;
77794;PMS5003;66985;45.778;3.090;2023-03-01T08:29:54;15;15;
77794;PMS5003;66985;45.778;3.090;2023-03-01T08:32:19;15;15;
77794;PMS5003;66985;45.778;3.090;2023-03-01T08:34:46;17;16;
77794;PMS5003;66985;45.778;3.090;2023-03-01T08:37:10;15;15;
77794;PMS5003;66985;45.778;3.090;2023-03-01T08:39:36;15;15;
77794;PMS5003;66985;45.778;3.090;2023-03-01T08:42:01;14;14;
77794;PMS5003;66985;45.778;3.090;2023-03-01T08:44:27;13;13;
77794;PMS5003;66985;45.778;3.090;2023-03-01T08:46:52;17;17;
77794;PMS5003;66985;45.778;3.090;2023-03-01T08:49:19;15;15;
77794;PMS5003;66985;45.778;3.090;2023-03-01T08:51:43;16;13;
77794;PMS5003;66985;45.778;3.090;2023-03-01T08:54:11;12;11;
77794;PMS5003;66985;45.778;3.090;2023-03-01T08:56:34;16;15;
77794;PMS5003;66985;45.778;3.090;2023-03-01T08:59:00;10;10;
77794;PMS5003;66985;45.778;3.090;2023-03-01T09:01:25;13;13;
77794;PMS5003;66985;45.778;3.090;2023-03-01T09:03:51;16;15;
77794;PMS5003;66985;45.778;3.090;2023-03-01T09:06:16;15;15;
77794;PMS5003;66985;45.778;3.090;2023-03-01T09:08:47;12;12;
77794;PMS5003;66985;45.778;3.090;2023-03-01T09:11:12;14;14;
77794;PMS5003;66985;45.778;3.090;2023-03-01T09:13:33;15;15;
77794;PMS5003;66985;45.778;3.090;2023-03-01T09:15:59;14;14;
77794;PMS5003;66985;45.778;3.090;2023-03-01T09:18:24;14;12;
77794;PMS5003;66985;45.778;3.090;2023-03-01T09:20:50;15;14;
77794;PMS5003;66985;45.778;3.090;2023-03-01T09:23:15;12;12;
77794;PMS5003;66985;45.778;3.090;2023-03-01T09:25:40;13;13;
77794;PMS5003;66985;45.778;3.090;2023-03-01T09:28:06;15;13;
77794;PMS5003;66985;45.778;3.090;2023-03-01T09:30:31;12;12;
77794;PMS5003;66985;45.778;3.090;2023-03-01T09:32:57;11;11;
77794;PMS5003;66985;45.778;3.090;2023-03-01T09:35:22;16;14;
77794;PMS5003;66985;45.778;3.090;2023-03-01T09:37:48;10;10;
77794;PMS5003;66985;45.778;3.090;2023-03-01T09:40:15;15;13;
77794;PMS5003;66985;45.778;3.090;2023-03-01T09:42:44;13;13;
77794;PMS5003;66985;45.778;3.090;2023-03-01T09:45:05;13;13;
77794;PMS5003;66985;45.778;3.090;2023-03-01T09:47:30;15;14;
77794;PMS5003;66985;45.778;3.090;2023-03-01T09:49:58;16;15;
77794;PMS5003;66985;45.778;3.090;2023-03-01T09:52:22;12;12;
77794;PMS5003;66985;45.778;3.090;2023-03-01T09:54:46;14;12;
77794;PMS5003;66985;45.778;3.090;2023-03-01T09:57:15;15;13;
77794;PMS5003;66985;45.778;3.090;2023-03-01T09:59:41;12;12;
77794;PMS5003;66985;45.778;3.090;2023-03-01T10:02:05;11;11;
77794;PMS5003;66985;45.778;3.090;2023-03-01T10:04:34;14;14;
77794;PMS5003;66985;45.778;3.090;2023-03-01T10:06:57;14;14;
77794;PMS5003;66985;45.778;3.090;2023-03-01T10:09:19;15;15;
77794;PMS5003;66985;45.778;3.090;2023-03-01T10:11:45;15;14;
77794;PMS5003;66985;45.778;3.090;2023-03-01T10:14:13;13;12;
77794;PMS5003;66985;45.778;3.090;2023-03-01T10:16:38;19;18;
77794;PMS5003;66985;45.778;3.090;2023-03-01T10:19:02;15;13;
77794;PMS5003;66985;45.778;3.090;2023-03-01T10:21:28;12;12;
77794;PMS5003;66985;45.778;3.090;2023-03-01T10:23:53;15;14;
77794;PMS5003;66985;45.778;3.090;2023-03-01T10:26:23;14;14;
77794;PMS5003;66985;45.778;3.090;2023-03-01T10:28:47;20;16;
77794;PMS5003;66985;45.778;3.090;2023-03-01T10:31:10;12;12;
77794;PMS5003;66985;45.778;3.090;2023-03-01T10:33:35;11;11;
77794;PMS5003;66985;45.778;3.090;2023-03-01T10:36:00;12;12;
77794;PMS5003;66985;45.778;3.090;2023-03-01T10:38:25;12;11;
77794;PMS5003;66985;45.778;3.090;2023-03-01T10:40:51;14;14;
77794;PMS5003;66985;45.778;3.090;2023-03-01T10:43:16;14;14;
77794;PMS5003;66985;45.778;3.090;2023-03-01T10:45:41;12;12;
77794;PMS5003;66985;45.778;3.090;2023-03-01T10:48:11;16;15;
77794;PMS5003;66985;45.778;3.090;2023-03-01T10:50:32;21;19;
77794;PMS5003;66985;45.778;3.090;2023-03-01T10:52:58;15;14;
77794;PMS5003;66985;45.778;3.090;2023-03-01T10:55:24;11;11;
77794;PMS5003;66985;45.778;3.090;2023-03-01T10:57:47;11;11;
77794;PMS5003;66985;45.778;3.090;2023-03-01T11:00:18;13;12;
77794;PMS5003;66985;45.778;3.090;2023-03-01T11:02:38;15;13;
77794;PMS5003;66985;45.778;3.090;2023-03-01T11:05:13;13;13;
77794;PMS5003;66985;45.778;3.090;2023-03-01T11:07:30;15;13;
77794;PMS5003;66985;45.778;3.090;2023-03-01T11:09:55;15;13;
77794;PMS5003;66985;45.778;3.090;2023-03-01T11:12:21;19;17;
77794;PMS5003;66985;45.778;3.090;2023-03-01T11:14:46;17;15;
77794;PMS5003;66985;45.778;3.090;2023-03-01T11:17:12;20;16;
77794;PMS5003;66985;45.778;3.090;2023-03-01T11:19:37;18;17;
77794;PMS5003;66985;45.778;3.090;2023-03-01T11:22:03;18;16;
77794;PMS5003;66985;45.778;3.090;2023-03-01T11:24:31;16;15;
77794;PMS5003;66985;45.778;3.090;2023-03-01T11:26:53;17;17;
77794;PMS5003;66985;45.778;3.090;2023-03-01T11:29:21;18;16;
77794;PMS5003;66985;45.778;3.090;2023-03-01T11:31:45;19;18;
77794;PMS5003;66985;45.778;3.090;2023-03-01T11:34:11;19;17;
77794;PMS5003;66985;45.778;3.090;2023-03-01T11:36:38;18;18;
77794;PMS5003;66985;45.778;3.090;2023-03-01T11:39:02;26;25;
77794;PMS5003;66985;45.778;3.090;2023-03-01T11:41:28;19;19;
77794;PMS5003;66985;45.778;3.090;2023-03-01T11:43:52;21;20;
77794;PMS5003;66985;45.778;3.090;2023-03-01T11:46:53;18;18;
77794;PMS5003;66985;45.778;3.090;2023-03-01T11:48:46;19;18;
77794;PMS5003;66985;45.778;3.090;2023-03-01T11:51:11;28;23;
77794;PMS5003;66985;45.778;3.090;2023-03-01T11:53:39;21;21;
77794;PMS5003;66985;45.778;3.090;2023-03-01T11:56:03;21;19;
77794;PMS5003;66985;45.778;3.090;2023-03-01T11:58:27;26;23;
77794;PMS5003;66985;45.778;3.090;2023-03-01T12:00:58;24;20;
77794;PMS5003;66985;45.778;3.090;2023-03-01T12:03:20;25;21;
77794;PMS5003;66985;45.778;3.090;2023-03-01T12:05:46;28;24;
77794;PMS5003;66985;45.778;3.090;2023-03-01T12:08:08;23;20;
77794;PMS5003;66985;45.778;3.090;2023-03-01T12:10:33;26;26;
77794;PMS5003;66985;45.778;3.090;2023-03-01T12:13:10;34;34;
77794;PMS5003;66985;45.778;3.090;2023-03-01T12:15:29;36;32;
77794;PMS5003;66985;45.778;3.090;2023-03-01T12:17:54;34;33;
77794;PMS5003;66985;45.778;3.090;2023-03-01T12:20:17;29;29;
77794;PMS5003;66985;45.778;3.090;2023-03-01T12:22:42;33;32;
77794;PMS5003;66985;45.778;3.090;2023-03-01T12:25:08;35;32;
77794;PMS5003;66985;45.778;3.090;2023-03-01T12:27:35;31;29;
77794;PMS5003;66985;45.778;3.090;2023-03-01T12:29:56;29;26;
77794;PMS5003;66985;45.778;3.090;2023-03-01T12:32:24;31;31;
77794;PMS5003;66985;45.778;3.090;2023-03-01T12:34:50;31;29;
77794;PMS5003;66985;45.778;3.090;2023-03-01T12:37:14;31;29;
77794;PMS5003;66985;45.778;3.090;2023-03-01T12:39:41;25;24;
77794;PMS5003;66985;45.778;3.090;2023-03-01T12:42:03;28;27;
77794;PMS5003;66985;45.778;3.090;2023-03-01T12:44:30;27;27;
77794;PMS5003;66985;45.778;3.090;2023-03-01T12:46:57;26;25;
77794;PMS5003;66985;45.778;3.090;2023-03-01T12:49:19;23;22;
77794;PMS5003;66985;45.778;3.090;2023-03-01T12:51:46;22;22;
77794;PMS5003;66985;45.778;3.090;2023-03-01T12:54:12;23;21;
77794;PMS5003;66985;45.778;3.090;2023-03-01T12:56:35;25;23;
77794;PMS5003;66985;45.778;3.090;2023-03-01T12:59:02;27;27;
77794;PMS5003;66985;45.778;3.090;2023-03-01T13:01:30;22;22;
77794;PMS5003;66985;45.778;3.090;2023-03-01T13:03:57;23;21;
77794;PMS5003;66985;45.778;3.090;2023-03-01T13:06:19;22;22;
77794;PMS5003;66985;45.778;3.090;2023-03-01T13:08:44;18;18;
77794;PMS5003;66985;45.778;3.090;2023-03-01T13:11:12;19;18;
77794;PMS5003;66985;45.778;3.090;2023-03-01T13:13:34;19;19;
77794;PMS5003;66985;45.778;3.090;2023-03-01T13:16:20;19;18;
77794;PMS5003;66985;45.778;3.090;2023-03-01T13:18:28;20;19;
77794;PMS5003;66985;45.778;3.090;2023-03-01T13:20:51;22;20;
77794;PMS5003;66985;45.778;3.090;2023-03-01T13:23:24;23;20;
77794;PMS5003;66985;45.778;3.090;2023-03-01T13:26:00;21;18;
77794;PMS5003;66985;45.778;3.090;2023-03-01T13:28:41;22;20;
77794;PMS5003;66985;45.778;3.090;2023-03-01T13:30:40;24;21;
77794;PMS5003;66985;45.778;3.090;2023-03-01T13:33:09;20;19;
77794;PMS5003;66985;45.778;3.090;2023-03-01T13:35:56;22;21;
77794;PMS5003;66985;45.778;3.090;2023-03-01T13:37:50;20;19;
77794;PMS5003;66985;45.778;3.090;2023-03-01T13:41:46;18;18;
77794;PMS5003;66985;45.778;3.090;2023-03-01T13:42:42;18;17;
77794;PMS5003;66985;45.778;3.090;2023-03-01T13:45:15;18;16;
77794;PMS5003;66985;45.778;3.090;2023-03-01T13:47:32;19;17;
77794;PMS5003;66985;45.778;3.090;2023-03-01T13:49:57;22;19;
77794;PMS5003;66985;45.778;3.090;2023-03-01T13:52:29;20;19;
77794;PMS5003;66985;45.778;3.090;2023-03-01T13:54:48;22;21;
77794;PMS5003;66985;45.778;3.090;2023-03-01T13:57:17;17;16;
77794;PMS5003;66985;45.778;3.090;2023-03-01T13:59:46;20;20;
77794;PMS5003;66985;45.778;3.090;2023-03-01T14:02:10;23;21;
77794;PMS5003;66985;45.778;3.090;2023-03-01T14:04:30;16;16;
77794;PMS5003;66985;45.778;3.090;2023-03-01T14:07:08;17;16;
77794;PMS5003;66985;45.778;3.090;2023-03-01T14:09:21;17;16;
77794;PMS5003;66985;45.778;3.090;2023-03-01T14:12:04;20;18;
77794;PMS5003;66985;45.778;3.090;2023-03-01T14:14:17;18;17;
77794;PMS5003;66985;45.778;3.090;2023-03-01T14:16:39;20;19;
77794;PMS5003;66985;45.778;3.090;2023-03-01T14:19:07;17;17;
77794;PMS5003;66985;45.778;3.090;2023-03-01T14:21:29;17;17;
77794;PMS5003;66985;45.778;3.090;2023-03-01T14:23:53;20;18;
77794;PMS5003;66985;45.778;3.090;2023-03-01T14:26:20;18;15;
77794;PMS5003;66985;45.778;3.090;2023-03-01T14:28:44;16;16;
77794;PMS5003;66985;45.778;3.090;2023-03-01T14:31:42;18;18;
77794;PMS5003;66985;45.778;3.090;2023-03-01T14:33:35;16;16;
77794;PMS5003;66985;45.778;3.090;2023-03-01T14:36:01;19;17;
77794;PMS5003;66985;45.778;3.090;2023-03-01T14:38:30;19;17;
77794;PMS5003;66985;45.778;3.090;2023-03-01T14:40:51;17;17;
77794;PMS5003;66985;45.778;3.090;2023-03-01T14:43:17;16;16;
77794;PMS5003;66985;45.778;3.090;2023-03-01T14:45:42;17;15;
77794;PMS5003;66985;45.778;3.090;2023-03-01T14:48:07;16;16;
77794;PMS5003;66985;45.778;3.090;2023-03-01T14:50:32;18;17;
77794;PMS5003;66985;45.778;3.090;2023-03-01T14:52:58;15;15;
77794;PMS5003;66985;45.778;3.090;2023-03-01T14:55:25;19;17;
77794;PMS5003;66985;45.778;3.090;2023-03-01T14:57:49;18;16;
77794;PMS5003;66985;45.778;3.090;2023-03-01T15:00:17;18;18;
77794;PMS5003;66985;45.778;3.090;2023-03-01T15:02:40;15;14;
77794;PMS5003;66985;45.778;3.090;2023-03-01T15:05:06;17;17;
77794;PMS5003;66985;45.778;3.090;2023-03-01T15:07:33;17;15;
77794;PMS5003;66985;45.778;3.090;2023-03-01T15:09:57;17;17;
77794;PMS5003;66985;45.778;3.090;2023-03-01T15:12:42;18;18;
77794;PMS5003;66985;45.778;3.090;2023-03-01T15:14:48;16;16;
77794;PMS5003;66985;45.778;3.090;2023-03-01T15:17:16;17;16;
77794;PMS5003;66985;45.778;3.090;2023-03-01T15:19:39;18;18;
77794;PMS5003;66985;45.778;3.090;2023-03-01T15:22:04;15;15;
77794;PMS5003;66985;45.778;3.090;2023-03-01T15:24:29;17;17;
77794;PMS5003;66985;45.778;3.090;2023-03-01T15:26:55;16;14;
77794;PMS5003;66985;45.778;3.090;2023-03-01T15:29:21;16;16;
77794;PMS5003;66985;45.778;3.090;2023-03-01T15:31:53;14;14;
77794;PMS5003;66985;45.778;3.090;2023-03-01T15:34:21;16;16;
77794;PMS5003;66985;45.778;3.090;2023-03-01T15:36:39;17;17;
77794;PMS5003;66985;45.778;3.090;2023-03-01T15:39:05;14;14;
77794;PMS5003;66985;45.778;3.090;2023-03-01T15:41:29;14;14;
77794;PMS5003;66985;45.778;3.090;2023-03-01T15:43:53;18;16;
77794;PMS5003;66985;45.778;3.090;2023-03-01T15:46:20;13;13;
77794;PMS5003;66985;45.778;3.090;2023-03-01T15:48:45;16;16;
77794;PMS5003;66985;45.778;3.090;2023-03-01T15:51:10;13;13;
77794;PMS5003;66985;45.778;3.090;2023-03-01T15:53:36;14;14;
77794;PMS5003;66985;45.778;3.090;2023-03-01T15:56:01;14;14;
77794;PMS5003;66985;45.778;3.090;2023-03-01T15:58:26;17;15;
77794;PMS5003;66985;45.778;3.090;2023-03-01T16:00:52;15;14;
77794;PMS5003;66985;45.778;3.090;2023-03-01T16:03:17;17;15;
77794;PMS5003;66985;45.778;3.090;2023-03-01T16:05:42;16;16;
77794;PMS5003;66985;45.778;3.090;2023-03-01T16:08:08;15;14;
77794;PMS5003;66985;45.778;3.090;2023-03-01T16:10:33;16;14;